Time;durP1;ratioP1;P1;durP2;ratioP2;P2;SDS_P1;SDS_P2;PMS_P1;PMS_P2;Temp;Humidity;BMP_temperature;BMP_pressure;BME280_temperature;BME280_humidity;BME280_pressure;Samples;Min_cycle;Max_cycle;Signal;HPM_P1;HPM_P2
2023/03/29 00:00:34;;;;;;;30.60;16.70;;;;;;;-2.86;71.39;97707.73;105389;1264;96626;-72
2023/03/29 00:03:17;;;;;;;44.80;21.80;;;;;;;-2.87;71.36;97711.66;105364;1263;97470;-72
2023/03/29 00:05:46;;;;;;;30.30;16.00;;;;;;;-2.96;71.21;97710.58;105017;1254;101175;-74
2023/03/29 00:08:16;;;;;;;31.30;16.50;;;;;;;-3.01;71.09;97710.11;105104;1254;101911;-71
2023/03/29 00:10:48;;;;;;;27.50;14.50;;;;;;;-3.03;71.16;97713.46;105200;1254;100596;-73
2023/03/29 00:13:17;;;;;;;25.10;13.10;;;;;;;-3.03;71.19;97712.80;105104;1253;96562;-72
2023/03/29 00:15:45;;;;;;;23.20;13.30;;;;;;;-3.03;71.05;97715.40;105115;1251;96988;-74
2023/03/29 00:18:13;;;;;;;25.00;13.70;;;;;;;-3.05;70.95;97716.92;105072;1254;102838;-73
2023/03/29 00:20:41;;;;;;;25.90;13.80;;;;;;;-3.10;70.93;97715.73;104908;1250;101949;-72
2023/03/29 00:23:10;;;;;;;20.80;12.20;;;;;;;-3.18;70.75;97716.88;104949;1251;100523;-73
2023/03/29 00:25:38;;;;;;;20.20;11.60;;;;;;;-3.25;70.79;97718.17;104865;1273;96776;-73
2023/03/29 00:28:06;;;;;;;29.70;16.50;;;;;;;-3.32;70.75;97719.36;105096;1254;96810;-74
2023/03/29 00:30:34;;;;;;;25.20;13.90;;;;;;;-3.43;70.80;97716.70;105154;1256;102365;-73
2023/03/29 00:33:02;;;;;;;27.20;14.60;;;;;;;-3.49;70.76;97722.84;105103;1254;102057;-72
2023/03/29 00:35:30;;;;;;;26.00;15.10;;;;;;;-3.53;70.78;97724.05;105266;1256;100393;-72
2023/03/29 00:37:59;;;;;;;23.80;14.50;;;;;;;-3.55;70.64;97724.38;105127;1251;96630;-75
2023/03/29 00:40:27;;;;;;;31.80;16.70;;;;;;;-3.65;70.64;97727.19;105141;1254;97473;-72
2023/03/29 00:42:56;;;;;;;27.00;15.30;;;;;;;-3.72;70.73;97730.04;105092;1253;102588;-73
2023/03/29 00:45:29;;;;;;;26.60;14.90;;;;;;;-3.76;70.80;97732.15;105223;1254;101860;-72
2023/03/29 00:48:19;;;;;;;34.60;18.40;;;;;;;-3.84;70.86;97731.33;105150;1273;100420;-74
2023/03/29 00:51:06;;;;;;;38.80;20.00;;;;;;;-3.91;71.02;97734.15;105216;1254;96562;-74
2023/03/29 00:53:39;;;;;;;26.20;14.60;;;;;;;-3.93;71.05;97735.50;105095;1254;97189;-73
2023/03/29 00:56:12;;;;;;;21.80;13.60;;;;;;;-3.93;71.16;97731.13;104933;1261;102721;-73
2023/03/29 00:58:55;;;;;;;20.90;12.20;;;;;;;-3.95;71.05;97733.71;105257;1256;102007;-72
2023/03/29 01:01:40;;;;;;;20.10;11.20;;;;;;;-4.01;70.93;97734.30;105271;1255;100517;-73
2023/03/29 01:04:18;;;;;;;20.80;11.80;;;;;;;-4.08;70.91;97732.01;104927;1258;96666;-73
2023/03/29 01:07:20;;;;;;;19.50;11.50;;;;;;;-4.15;70.86;97729.70;105111;1265;97022;-72
2023/03/29 01:10:09;;;;;;;17.90;11.30;;;;;;;-4.21;70.98;97727.31;104473;1261;102496;-73
2023/03/29 01:12:51;;;;;;;23.50;12.40;;;;;;;-4.24;70.92;97728.45;104462;1264;101845;-72
2023/03/29 01:15:24;;;;;;;24.30;12.80;;;;;;;-4.32;70.84;97727.30;104422;1264;100352;-73
2023/03/29 01:17:54;;;;;;;20.50;12.30;;;;;;;-4.37;70.85;97726.26;104296;1282;97782;-73
2023/03/29 01:20:42;;;;;;;22.00;12.70;;;;;;;-4.39;70.75;97729.89;104450;1262;97052;-73
2023/03/29 01:23:42;;;;;;;21.90;11.80;;;;;;;-4.43;70.59;97726.66;104475;1264;102971;-74
2023/03/29 01:26:54;;;;;;;18.70;11.50;;;;;;;-4.49;70.54;97728.21;104516;1263;102057;-75
2023/03/29 01:29:37;;;;;;;16.00;11.20;;;;;;;-4.63;70.37;97722.20;104178;1267;99295;-73
2023/03/29 01:32:16;;;;;;;17.90;11.30;;;;;;;-4.71;70.46;97724.31;104319;1261;97774;-75
2023/03/29 01:35:00;;;;;;;18.50;11.70;;;;;;;-4.76;70.33;97720.98;104475;1262;98178;-73
2023/03/29 01:37:56;;;;;;;17.80;11.20;;;;;;;-4.83;70.38;97725.16;104267;1266;103722;-75
2023/03/29 01:40:26;;;;;;;20.40;11.80;;;;;;;-4.92;70.30;97721.58;104610;1261;101732;-73
2023/03/29 01:43:10;;;;;;;23.40;12.50;;;;;;;-5.00;70.41;97724.45;104547;1260;100455;-73
2023/03/29 01:45:48;;;;;;;20.40;12.30;;;;;;;-5.02;70.52;97726.02;104513;1261;96825;-76
2023/03/29 01:48:25;;;;;;;23.80;13.40;;;;;;;-5.10;70.28;97727.96;105070;1273;98254;-73
2023/03/29 01:51:03;;;;;;;21.90;11.70;;;;;;;-5.21;70.19;97727.15;104840;1250;101304;-73
2023/03/29 01:53:35;;;;;;;20.70;13.10;;;;;;;-5.31;70.18;97728.70;105246;1251;102219;-74
2023/03/29 01:56:11;;;;;;;20.80;12.30;;;;;;;-5.36;70.24;97730.86;105237;1256;100560;-72
2023/03/29 01:58:47;;;;;;;20.10;12.20;;;;;;;-5.44;70.11;97728.03;105363;1256;97193;-75
2023/03/29 02:01:22;;;;;;;19.40;11.60;;;;;;;-5.53;70.16;97733.58;105316;1256;97009;-75
2023/03/29 02:03:54;;;;;;;17.80;11.10;;;;;;;-5.60;70.10;97732.98;105255;1257;102588;-76
2023/03/29 02:06:23;;;;;;;;;;;;;;;-5.67;70.14;97733.85;105347;1253;101835;-74
2023/03/29 02:08:54;;;;;;;17.50;11.00;;;;;;;-5.73;70.33;97732.32;105274;1254;100651;-73
2023/03/29 02:11:26;;;;;;;16.10;11.10;;;;;;;-5.76;70.21;97728.84;105166;1273;96565;-75
2023/03/29 02:13:54;;;;;;;17.60;11.20;;;;;;;-5.79;70.37;97726.53;105407;1252;97884;-73
2023/03/29 02:16:22;;;;;;;19.50;11.40;;;;;;;-5.81;70.44;97729.14;105261;1255;112021;-75
2023/03/29 02:18:53;;;;;;;18.40;11.20;;;;;;;-5.85;70.23;97730.33;105266;1255;101696;-74
2023/03/29 02:21:36;;;;;;;16.60;11.40;;;;;;;-5.97;70.07;97727.31;105345;1254;100521;-74
2023/03/29 02:24:08;;;;;;;18.30;10.30;;;;;;;-6.05;70.03;97727.99;105395;1256;97495;-72
2023/03/29 02:26:37;;;;;;;16.20;10.20;;;;;;;-6.14;69.99;97728.11;105137;1255;96979;-76
2023/03/29 02:29:05;;;;;;;18.40;11.40;;;;;;;-6.23;70.05;97722.02;104944;1258;101425;-72
2023/03/29 02:31:49;;;;;;;17.10;9.90;;;;;;;-6.27;70.16;97726.47;105329;1251;101803;-73
2023/03/29 02:34:23;;;;;;;16.70;9.40;;;;;;;-6.32;70.15;97723.10;105192;1250;100643;-73
2023/03/29 02:36:55;;;;;;;15.80;9.60;;;;;;;-6.35;70.05;97723.14;105081;1263;96806;-73
2023/03/29 02:39:26;;;;;;;13.60;8.60;;;;;;;-6.40;70.11;97727.49;105295;1256;96968;-73
2023/03/29 02:41:56;;;;;;;17.70;9.60;;;;;;;-6.45;70.03;97728.89;105288;1265;102908;-72
2023/03/29 02:44:29;;;;;;;16.20;9.70;;;;;;;-6.50;69.96;97730.44;105156;1254;101982;-74
2023/03/29 02:47:13;;;;;;;17.20;10.40;;;;;;;-6.56;69.84;97732.05;105117;1256;100534;-74
2023/03/29 02:49:42;;;;;;;18.00;10.30;;;;;;;-6.62;69.82;97739.60;104868;1259;97416;-73
2023/03/29 02:58:58;;;;;;;19.90;11.50;;;;;;;-6.77;69.71;97740.05;102083;1294;635928;-74
2023/03/29 03:01:26;;;;;;;17.10;10.80;;;;;;;-6.88;69.66;97742.66;104272;1271;95887;-73
2023/03/29 03:03:54;;;;;;;16.40;9.90;;;;;;;-6.92;69.74;97740.10;104316;1288;95940;-73
2023/03/29 03:06:22;;;;;;;17.00;10.10;;;;;;;-6.91;69.85;97741.61;104080;1273;99954;-73
2023/03/29 03:08:51;;;;;;;19.40;11.20;;;;;;;-6.92;69.79;97740.27;104161;1272;102065;-72
2023/03/29 03:11:20;;;;;;;16.20;9.80;;;;;;;-6.96;69.91;97739.98;104164;1272;100453;-73
2023/03/29 03:13:48;;;;;;;16.70;10.00;;;;;;;-7.00;69.84;97741.44;104089;1276;224673;-73
2023/03/29 03:16:16;;;;;;;23.40;12.80;;;;;;;-7.03;69.85;97744.81;104266;1269;96012;-74
2023/03/29 03:18:45;;;;;;;28.40;16.50;;;;;;;-7.07;69.78;97747.19;104575;1262;100157;-75
2023/03/29 03:21:13;;;;;;;28.50;16.60;;;;;;;-7.14;69.82;97749.52;104605;1278;101140;-75
2023/03/29 03:23:41;;;;;;;28.20;17.00;;;;;;;-7.18;69.97;97752.72;104403;1267;109341;-71
2023/03/29 03:26:09;;;;;;;26.30;15.40;;;;;;;-7.19;69.90;97756.98;104481;1283;95891;-72
2023/03/29 03:28:39;;;;;;;25.20;14.50;;;;;;;-7.23;69.86;97758.08;104698;1276;95864;-72
2023/03/29 03:31:08;;;;;;;24.90;15.30;;;;;;;-7.29;69.72;97756.21;104764;1266;101308;-75
2023/03/29 03:33:36;;;;;;;29.10;17.40;;;;;;;-7.35;69.77;97757.97;104541;1265;101930;-73
2023/03/29 03:36:05;;;;;;;31.10;16.40;;;;;;;-7.38;69.76;97758.36;104447;1265;100008;-75
2023/03/29 03:38:34;;;;;;;27.60;16.00;;;;;;;-7.42;69.72;97757.20;104661;1273;96041;-72
2023/03/29 03:41:03;;;;;;;28.60;15.40;;;;;;;-7.45;69.82;97758.07;104377;1260;96146;-75
2023/03/29 03:43:31;;;;;;;27.00;14.20;;;;;;;-7.48;69.86;97758.23;104486;1274;99905;-70
2023/03/29 03:46:00;;;;;;;36.70;21.00;;;;;;;-7.49;69.91;97758.33;104464;1274;102012;-72
2023/03/29 03:48:28;;;;;;;38.30;24.00;;;;;;;-7.50;70.02;97758.73;104500;1266;100570;-72
2023/03/29 03:50:58;;;;;;;37.80;23.00;;;;;;;-7.51;70.02;97760.87;104465;1283;96532;-72
2023/03/29 03:53:27;;;;;;;42.00;26.60;;;;;;;-7.53;69.83;97759.63;104311;1270;96630;-71
2023/03/29 03:55:56;;;;;;;35.40;23.80;;;;;;;-7.54;69.94;97762.13;104520;1266;101321;-72
2023/03/29 03:58:24;;;;;;;37.20;24.00;;;;;;;-7.54;69.81;97767.73;104541;1264;110482;-72
2023/03/29 04:00:53;;;;;;;37.50;24.40;;;;;;;-7.61;69.59;97767.91;104568;1266;100195;-73
2023/03/29 04:03:22;;;;;;;35.70;23.00;;;;;;;-7.70;69.49;97768.64;104527;1266;95837;-71
2023/03/29 04:05:50;;;;;;;34.30;23.20;;;;;;;-7.74;69.56;97770.95;104581;1263;95896;-72
2023/03/29 04:08:21;;;;;;;42.30;25.30;;;;;;;-7.76;69.60;97771.98;104546;1259;101252;-72
2023/03/29 04:10:54;;;;;;;39.10;22.50;;;;;;;-7.81;69.52;97768.05;104585;1276;101967;-71
2023/03/29 04:13:22;;;;;;;52.50;28.50;;;;;;;-7.88;69.37;97767.93;104542;1277;99124;-71
2023/03/29 04:15:52;;;;;;;62.50;33.40;;;;;;;-7.92;69.54;97770.27;104610;1266;95857;-74
2023/03/29 04:18:21;;;;;;;87.10;48.80;;;;;;;-7.94;69.66;97767.45;104543;1265;97145;-72
2023/03/29 04:20:49;;;;;;;81.00;45.20;;;;;;;-7.97;69.80;97769.54;104508;1267;101582;-74
2023/03/29 04:23:18;;;;;;;56.90;32.50;;;;;;;-8.00;69.75;97765.48;104438;1265;100011;-72
2023/03/29 04:25:46;;;;;;;55.60;32.70;;;;;;;-8.05;69.56;97765.80;104167;1269;109352;-73
2023/03/29 04:28:14;;;;;;;58.60;32.70;;;;;;;-8.14;69.65;97761.95;104594;1264;96819;-72
2023/03/29 04:30:42;;;;;;;54.40;32.20;;;;;;;-8.16;69.62;97764.02;104640;1260;95851;-76
2023/03/29 04:33:10;;;;;;;57.00;31.20;;;;;;;-8.20;69.68;97767.38;104804;1260;109664;-77
2023/03/29 04:35:38;;;;;;;50.40;27.30;;;;;;;-8.23;69.77;97766.31;104553;1264;111404;-72
2023/03/29 04:38:08;;;;;;;56.40;29.30;;;;;;;-8.22;69.89;97767.31;104635;1267;108168;-71
2023/03/29 04:40:38;;;;;;;47.20;27.10;;;;;;;-8.20;69.89;97768.91;104617;1262;96019;-72
2023/03/29 04:43:06;;;;;;;56.50;30.70;;;;;;;-8.20;69.78;97770.48;104605;1262;96904;-76
2023/03/29 04:45:34;;;;;;;59.80;35.90;;;;;;;-8.20;69.77;97772.21;104518;1273;101350;-74
2023/03/29 04:48:02;;;;;;;55.60;32.70;;;;;;;-8.23;69.74;97770.86;104693;1262;101822;-72
2023/03/29 04:50:31;;;;;;;48.10;28.70;;;;;;;-8.28;69.68;97765.89;104619;1271;109039;-72
2023/03/29 04:53:00;;;;;;;46.80;28.00;;;;;;;-8.32;69.50;97772.77;104624;1270;96079;-73
2023/03/29 04:55:28;;;;;;;45.00;26.70;;;;;;;-8.37;69.51;97773.77;104686;1264;95867;-73
2023/03/29 04:57:56;;;;;;;44.60;26.50;;;;;;;-8.40;69.60;97769.91;104645;1270;110177;-73
2023/03/29 05:00:26;;;;;;;48.90;28.80;;;;;;;-8.40;69.80;97772.34;104649;1262;110368;-73
2023/03/29 05:02:54;;;;;;;57.10;32.60;;;;;;;-8.39;69.76;97769.31;104596;1270;109049;-74
2023/03/29 05:05:22;;;;;;;65.20;35.00;;;;;;;-8.39;69.86;97770.20;104625;1270;95867;-73
2023/03/29 05:07:51;;;;;;;63.80;32.90;;;;;;;-8.38;69.94;97767.39;104629;1262;95873;-72
2023/03/29 05:10:19;;;;;;;53.90;30.80;;;;;;;-8.38;69.97;97766.68;104653;1270;101352;-73
2023/03/29 05:12:52;;;;;;;48.90;30.30;;;;;;;-8.36;70.02;97766.40;104715;1270;110576;-76
2023/03/29 05:15:21;;;;;;;45.80;28.10;;;;;;;-8.34;70.09;97766.11;104634;1260;100703;-73
2023/03/29 05:17:49;;;;;;;46.60;28.90;;;;;;;-8.33;70.21;97761.69;104842;1269;95957;-74
2023/03/29 05:20:17;;;;;;;48.20;29.00;;;;;;;-8.31;70.12;97762.11;105176;1258;95871;-73
2023/03/29 05:22:45;;;;;;;52.80;31.60;;;;;;;-8.31;70.09;97761.36;104954;1257;108615;-73
2023/03/29 05:25:16;;;;;;;47.50;28.80;;;;;;;-8.29;70.21;97761.75;105041;1266;101847;-73
2023/03/29 05:27:44;;;;;;;43.40;27.70;;;;;;;-8.27;70.10;97762.38;104994;1257;100530;-74
2023/03/29 05:30:14;;;;;;;47.10;27.80;;;;;;;-8.26;70.19;97760.02;105110;1259;95874;-73
2023/03/29 05:32:42;;;;;;;55.00;30.10;;;;;;;-8.25;70.19;97761.02;105050;1266;97136;-74
2023/03/29 05:35:11;;;;;;;51.70;31.10;;;;;;;-8.23;70.22;97763.04;105303;1269;107514;-73
2023/03/29 05:37:39;;;;;;;55.60;33.60;;;;;;;-8.25;70.30;97762.58;105009;1260;110425;-74
2023/03/29 05:40:08;;;;;;;57.70;32.50;;;;;;;-8.20;70.45;97763.20;104871;1256;100264;-73
2023/03/29 05:42:37;;;;;;;57.70;33.20;;;;;;;-8.14;70.41;97768.63;104899;1263;95844;-72
2023/03/29 05:45:06;;;;;;;50.80;29.80;;;;;;;-8.11;70.36;97770.02;104961;1261;96050;-75
2023/03/29 05:47:35;;;;;;;55.30;31.10;;;;;;;-8.07;70.47;97770.98;104934;1259;101211;-72
2023/03/29 05:50:04;;;;;;;56.60;32.50;;;;;;;-8.02;70.43;97770.17;104940;1257;111056;-73
2023/03/29 05:52:32;;;;;;;59.30;33.10;;;;;;;-7.97;70.46;97766.36;105038;1256;100109;-75
2023/03/29 05:55:00;;;;;;;65.90;35.60;;;;;;;-7.92;70.53;97766.95;105213;1267;95938;-75
2023/03/29 05:57:28;;;;;;;73.40;40.50;;;;;;;-7.87;70.57;97768.59;104777;1273;95899;-73
2023/03/29 05:59:57;;;;;;;69.20;37.40;;;;;;;-7.81;70.74;97764.58;105223;1257;101286;-73
2023/03/29 06:02:27;;;;;;;88.70;47.70;;;;;;;-7.73;70.79;97764.60;105220;1257;101619;-75
2023/03/29 06:04:56;;;;;;;84.40;46.10;;;;;;;-7.65;70.85;97763.45;105263;1257;100240;-75
2023/03/29 06:07:24;;;;;;;86.70;49.00;;;;;;;-7.58;70.94;97761.98;105173;1259;96005;-74
2023/03/29 06:09:53;;;;;;;73.90;44.10;;;;;;;-7.52;70.99;97762.70;105075;1259;95893;-72
2023/03/29 06:12:21;;;;;;;71.20;43.00;;;;;;;-7.44;70.92;97761.66;105066;1256;110049;-74
2023/03/29 06:14:49;;;;;;;75.00;41.10;;;;;;;-7.36;71.14;97764.13;104919;1260;110936;-76
2023/03/29 06:17:17;;;;;;;52.00;30.70;;;;;;;-7.29;71.19;97762.52;104962;1273;100591;-73
2023/03/29 06:19:45;;;;;;;56.80;33.50;;;;;;;-7.19;71.21;97761.55;105317;1264;96512;-73
2023/03/29 06:22:13;;;;;;;66.20;36.10;;;;;;;-7.10;71.27;97761.31;105003;1257;95803;-74
2023/03/29 06:24:42;;;;;;;71.80;42.10;;;;;;;-7.00;71.33;97763.88;104965;1257;101141;-72
2023/03/29 06:27:10;;;;;;;74.70;42.50;;;;;;;-6.91;71.37;97764.33;105038;1265;100124;-75
2023/03/29 06:29:38;;;;;;;76.20;41.50;;;;;;;-6.79;71.52;97763.48;104803;1260;100159;-74
2023/03/29 06:32:06;;;;;;;70.20;38.10;;;;;;;-6.68;71.53;97763.61;105094;1261;96004;-73
2023/03/29 06:34:36;;;;;;;72.60;37.70;;;;;;;-6.58;71.67;97763.88;105326;1266;96629;-73
2023/03/29 06:37:04;;;;;;;73.60;41.20;;;;;;;-6.49;71.71;97766.58;105127;1275;101672;-75
2023/03/29 06:39:33;;;;;;;72.50;41.10;;;;;;;-6.38;71.76;97766.55;105078;1257;102000;-74
2023/03/29 06:42:01;;;;;;;71.80;39.40;;;;;;;-6.25;71.75;97762.58;104928;1259;100858;-75
2023/03/29 06:44:29;;;;;;;65.10;37.90;;;;;;;-6.11;71.91;97761.72;104982;1259;96811;-71
2023/03/29 06:46:57;;;;;;;68.30;38.40;;;;;;;-5.99;71.96;97759.66;104697;1261;96720;-74
2023/03/29 06:49:26;;;;;;;68.60;36.40;;;;;;;-5.86;72.00;97763.50;105119;1266;101558;-72
2023/03/29 06:51:55;;;;;;;50.60;26.20;;;;;;;-5.73;72.04;97764.59;105157;1254;102432;-72
2023/03/29 06:54:24;;;;;;;42.80;24.30;;;;;;;-5.61;71.77;97765.52;104978;1257;100626;-72
2023/03/29 06:56:53;;;;;;;36.00;18.40;;;;;;;-5.49;71.69;97770.29;104969;1264;96822;-73
2023/03/29 06:59:21;;;;;;;26.20;15.70;;;;;;;-5.36;71.52;97770.12;105131;1267;95829;-74
2023/03/29 07:01:51;;;;;;;26.90;15.30;;;;;;;-5.22;71.53;97765.10;105243;1256;101495;-73
2023/03/29 07:04:22;;;;;;;25.70;14.60;;;;;;;-5.08;71.57;97766.07;105202;1265;101911;-72
2023/03/29 07:07:00;;;;;;;26.00;14.10;;;;;;;-4.94;71.41;97764.56;105308;1264;100452;-72
2023/03/29 07:09:30;;;;;;;26.10;14.20;;;;;;;-4.80;71.37;97761.12;105292;1266;96586;-72
2023/03/29 07:11:58;;;;;;;22.80;12.70;;;;;;;-4.65;71.38;97761.29;105204;1255;97006;-72
2023/03/29 07:14:28;;;;;;;19.60;11.30;;;;;;;-4.48;71.19;97763.77;105192;1254;102414;-72
2023/03/29 07:16:58;;;;;;;21.60;11.10;;;;;;;-4.33;71.16;97766.38;105245;1264;101735;-72
2023/03/29 07:19:28;;;;;;;17.60;10.30;;;;;;;-4.18;70.82;97766.14;105329;1255;100253;-71
2023/03/29 07:21:57;;;;;;;21.10;10.00;;;;;;;-4.02;70.53;97769.55;105209;1257;97570;-71
2023/03/29 07:24:25;;;;;;;19.00;10.60;;;;;;;-3.85;70.32;97772.72;105313;1267;97101;-71
2023/03/29 07:26:54;;;;;;;18.20;10.30;;;;;;;-3.70;70.27;97773.16;105340;1257;102688;-71
2023/03/29 07:29:22;;;;;;;22.10;10.30;;;;;;;-3.55;70.04;97774.48;105072;1266;101907;-72
2023/03/29 07:31:50;;;;;;;23.90;12.00;;;;;;;-3.38;69.94;97774.23;105079;1257;100684;-72
2023/03/29 07:34:18;;;;;;;19.80;10.70;;;;;;;-3.20;69.52;97770.44;104979;1258;98046;-73
2023/03/29 07:36:46;;;;;;;22.80;11.40;;;;;;;-3.04;69.07;97768.98;104925;1270;97290;-72
2023/03/29 07:39:15;;;;;;;24.90;12.10;;;;;;;-2.89;68.76;97766.24;105004;1254;102454;-71
2023/03/29 07:41:43;;;;;;;25.50;11.30;;;;;;;-2.72;68.62;97765.73;105119;1258;101874;-72
2023/03/29 07:44:11;;;;;;;22.80;11.60;;;;;;;-2.50;68.68;97762.75;105060;1254;106325;-71
2023/03/29 07:46:41;;;;;;;18.40;10.40;;;;;;;-2.27;68.65;97751.98;105046;1255;96643;-72
2023/03/29 07:49:09;;;;;;;22.30;11.30;;;;;;;-2.04;68.35;97752.92;104881;1258;97181;-71
2023/03/29 07:51:38;;;;;;;16.90;9.80;;;;;;;-1.80;68.01;97749.70;104886;1258;102807;-72
2023/03/29 07:54:06;;;;;;;18.80;9.20;;;;;;;-1.57;67.60;97748.30;104623;1263;101837;-71
2023/03/29 07:56:35;;;;;;;16.40;8.50;;;;;;;-1.32;67.24;97748.52;104510;1263;100575;-71
2023/03/29 07:59:03;;;;;;;13.60;8.30;;;;;;;-1.05;67.19;97743.86;104902;1257;97919;-72
2023/03/29 08:01:31;;;;;;;15.90;7.80;;;;;;;-0.78;66.59;97746.17;104670;1260;98414;-70
2023/03/29 08:04:20;;;;;;;12.80;7.50;;;;;;;-0.59;65.68;97743.73;104862;1254;102799;-71
2023/03/29 08:06:48;;;;;;;10.30;5.40;;;;;;;-0.35;65.03;97742.33;104622;1269;100056;-69
2023/03/29 08:09:17;;;;;;;8.80;4.70;;;;;;;-0.01;64.67;97742.35;104872;1259;100484;-69
2023/03/29 08:11:45;;;;;;;10.10;5.20;;;;;;;0.32;64.19;97738.04;104781;1261;96737;-69
2023/03/29 08:14:13;;;;;;;8.90;5.20;;;;;;;0.65;63.79;97733.97;104919;1270;96994;-69
2023/03/29 08:16:41;;;;;;;10.10;5.20;;;;;;;0.98;63.40;97731.59;104976;1268;102659;-69
2023/03/29 08:19:10;;;;;;;10.80;5.50;;;;;;;1.30;62.63;97729.26;104804;1261;101909;-69
2023/03/29 08:21:38;;;;;;;8.50;5.30;;;;;;;1.62;62.43;97720.09;104526;1263;100494;-69
2023/03/29 08:24:06;;;;;;;11.00;5.60;;;;;;;1.89;61.69;97716.08;104911;1258;96863;-69
2023/03/29 08:26:35;;;;;;;8.70;5.20;;;;;;;2.17;60.98;97711.17;104996;1269;96936;-68
2023/03/29 08:29:03;;;;;;;8.70;4.80;;;;;;;2.53;59.80;97709.20;104790;1257;102742;-68
2023/03/29 08:31:32;;;;;;;7.70;4.70;;;;;;;2.90;59.90;97710.86;104577;1263;100486;-69
2023/03/29 08:34:00;;;;;;;9.60;5.50;;;;;;;3.32;59.32;97705.55;104766;1268;100448;-68
2023/03/29 08:36:28;;;;;;;11.20;5.30;;;;;;;3.69;58.96;97709.61;104944;1269;96641;-68
2023/03/29 08:38:57;;;;;;;6.90;4.40;;;;;;;4.08;58.43;97708.50;104847;1263;97090;-69
2023/03/29 08:41:50;;;;;;;8.10;4.50;;;;;;;4.42;57.74;97706.05;105042;1260;102882;-69
2023/03/29 08:45:02;;;;;;;7.90;4.60;;;;;;;4.79;56.94;97707.21;104993;1261;102097;-70
2023/03/29 08:47:59;;;;;;;9.00;4.70;;;;;;;5.14;56.70;97709.20;104422;1270;100409;-70
2023/03/29 08:50:35;;;;;;;7.40;4.70;;;;;;;5.43;55.91;97707.86;104628;1272;97421;-70
2023/03/29 08:53:20;;;;;;;7.80;4.10;;;;;;;5.69;55.36;97709.09;104647;1267;97324;-69
2023/03/29 08:55:51;;;;;;;10.10;4.90;;;;;;;5.83;54.51;97709.73;104651;1264;102533;-70
2023/03/29 08:58:28;;;;;;;9.40;5.70;;;;;;;5.98;53.88;97707.39;104629;1260;101623;-70
2023/03/29 09:01:01;;;;;;;6.70;4.90;;;;;;;6.12;53.72;97704.17;104684;1273;100779;-70
2023/03/29 09:03:38;;;;;;;10.00;4.60;;;;;;;6.25;53.55;97696.91;104762;1273;97884;-70
2023/03/29 09:06:09;;;;;;;7.10;4.00;;;;;;;6.43;52.98;97695.69;104649;1263;97811;-70
2023/03/29 09:08:44;;;;;;;7.40;4.50;;;;;;;6.60;52.27;97696.13;104698;1263;102619;-71
2023/03/29 09:11:24;;;;;;;6.50;3.60;;;;;;;6.68;51.76;97690.44;104658;1263;101970;-70
2023/03/29 09:13:55;;;;;;;7.80;3.80;;;;;;;6.76;50.87;97688.60;104521;1274;100421;-71
2023/03/29 09:16:45;;;;;;;7.60;3.70;;;;;;;6.88;50.74;97685.98;104477;1264;96604;-69
2023/03/29 09:19:26;;;;;;;8.30;4.10;;;;;;;6.95;49.11;97682.64;104509;1264;97023;-70
2023/03/29 09:22:03;;;;;;;5.80;3.90;;;;;;;6.96;49.40;97681.05;104848;1273;102899;-70
2023/03/29 09:24:54;;;;;;;6.80;3.50;;;;;;;7.14;49.04;97681.20;104802;1270;101920;-71
2023/03/29 09:27:30;;;;;;;7.90;3.70;;;;;;;7.35;48.90;97678.88;105094;1258;100484;-70
2023/03/29 09:30:10;;;;;;;6.30;3.70;;;;;;;7.53;48.66;97678.04;104903;1257;96640;-71
2023/03/29 09:32:53;;;;;;;7.00;3.80;;;;;;;7.75;48.32;97679.05;104971;1253;97363;-70
2023/03/29 09:35:25;;;;;;;6.70;3.80;;;;;;;7.97;47.87;97675.78;105010;1256;102957;-71
2023/03/29 09:37:54;;;;;;;7.50;3.90;;;;;;;8.16;47.47;97673.33;105029;1256;100067;-70
2023/03/29 09:40:41;;;;;;;12.40;5.10;;;;;;;8.36;47.01;97674.75;105252;1255;99160;-71
2023/03/29 09:43:17;;;;;;;13.10;6.10;;;;;;;8.67;46.54;97676.48;104995;1267;96803;-71
2023/03/29 09:45:53;;;;;;;9.30;5.70;;;;;;;8.82;46.08;97675.55;105090;1254;97744;-71
2023/03/29 09:48:22;;;;;;;9.50;5.20;;;;;;;9.02;46.50;97674.98;105042;1255;102428;-72
2023/03/29 09:50:52;;;;;;;7.90;4.70;;;;;;;9.33;46.24;97672.76;105091;1267;101886;-71
2023/03/29 09:53:21;;;;;;;7.40;3.60;;;;;;;9.57;45.39;97663.70;105033;1254;100550;-71
2023/03/29 09:55:51;;;;;;;7.30;4.50;;;;;;;9.67;44.96;97658.21;105043;1255;96565;-72
2023/03/29 09:58:26;;;;;;;7.20;5.00;;;;;;;9.86;45.88;97654.90;105066;1266;97778;-72
2023/03/29 10:00:59;;;;;;;8.90;4.70;;;;;;;10.12;45.25;97653.60;105033;1253;102722;-72
2023/03/29 10:03:30;;;;;;;11.20;4.70;;;;;;;10.34;44.36;97652.48;105008;1257;101627;-72
2023/03/29 10:06:04;;;;;;;9.00;5.50;;;;;;;10.45;43.61;97652.06;105031;1258;100436;-72
2023/03/29 10:08:35;;;;;;;9.90;5.10;;;;;;;10.39;42.72;97648.52;105133;1267;96582;-73
2023/03/29 10:11:18;;;;;;;10.30;5.60;;;;;;;10.31;42.98;97646.75;105269;1255;97101;-73
2023/03/29 10:13:53;;;;;;;9.20;5.40;;;;;;;10.37;43.14;97646.84;105236;1264;102775;-72
2023/03/29 10:16:29;;;;;;;8.70;5.20;;;;;;;10.53;43.43;97641.64;105229;1258;101853;-72
2023/03/29 10:18:58;;;;;;;8.70;5.50;;;;;;;10.74;43.44;97642.05;104988;1257;100487;-72
2023/03/29 10:21:29;;;;;;;10.10;5.30;;;;;;;10.79;42.92;97646.78;104957;1253;97798;-72
2023/03/29 10:23:59;;;;;;;9.70;5.40;;;;;;;10.79;42.63;97644.29;104941;1270;97118;-72
2023/03/29 10:26:31;;;;;;;11.20;5.90;;;;;;;10.87;42.60;97639.93;105224;1253;102687;-72
2023/03/29 10:29:00;;;;;;;;;;;;;;;11.00;42.52;97639.89;105150;1261;102489;-73
2023/03/29 10:31:31;;;;;;;7.50;4.80;;;;;;;10.97;41.97;97636.73;105249;1256;100479;-73
2023/03/29 10:34:05;;;;;;;7.00;4.90;;;;;;;10.85;41.48;97635.75;105123;1257;96626;-72
2023/03/29 10:36:34;;;;;;;7.90;5.00;;;;;;;10.77;41.98;97638.42;105052;1253;96997;-72
2023/03/29 10:39:04;;;;;;;6.40;4.60;;;;;;;10.70;41.72;97639.85;104921;1257;101193;-72
2023/03/29 10:41:35;;;;;;;5.60;4.30;;;;;;;10.66;41.48;97637.59;105052;1252;101684;-72
2023/03/29 10:44:03;;;;;;;7.30;4.00;;;;;;;10.53;41.10;97636.12;104894;1260;100248;-73
2023/03/29 10:46:40;;;;;;;6.60;4.40;;;;;;;10.40;41.10;97638.80;104769;1254;96857;-73
2023/03/29 10:49:20;;;;;;;7.00;4.00;;;;;;;10.37;40.69;97634.98;104761;1259;97103;-73
2023/03/29 10:51:50;;;;;;;8.30;4.50;;;;;;;10.46;41.04;97631.14;105026;1256;102505;-73
2023/03/29 10:54:23;;;;;;;7.10;4.40;;;;;;;10.55;40.73;97623.16;105028;1255;102006;-72
2023/03/29 11:04:29;;;;;;;6.70;3.60;;;;;;;10.89;39.00;97618.53;102964;1285;635945;-71
2023/03/29 11:07:34;;;;;;;5.20;4.20;;;;;;;11.03;39.20;97617.98;104468;1269;97228;-72
2023/03/29 11:10:21;;;;;;;5.30;3.40;;;;;;;11.35;39.25;97616.95;104483;1278;96797;-71
2023/03/29 11:13:01;;;;;;;5.40;3.80;;;;;;;11.55;38.91;97610.29;104525;1269;100094;-72
2023/03/29 11:15:41;;;;;;;6.70;3.80;;;;;;;11.83;38.51;97603.89;104329;1268;101825;-72
2023/03/29 11:18:25;;;;;;;6.40;3.70;;;;;;;11.97;38.74;97599.46;104221;1262;189499;-72
2023/03/29 11:21:11;;;;;;;5.30;3.40;;;;;;;12.14;38.63;97600.97;104472;1266;95861;-72
2023/03/29 11:23:49;;;;;;;6.70;3.70;;;;;;;12.42;38.56;97598.38;104185;1285;96885;-72
2023/03/29 11:26:36;;;;;;;4.00;2.90;;;;;;;12.49;37.85;97599.74;104473;1285;100005;-72
2023/03/29 11:29:27;;;;;;;6.50;3.50;;;;;;;12.51;36.89;97597.08;104229;1271;102914;-72
2023/03/29 11:32:01;;;;;;;7.30;3.70;;;;;;;12.60;37.50;97592.39;103843;1275;100451;-72
2023/03/29 11:35:05;;;;;;;6.20;3.60;;;;;;;12.56;37.38;97589.88;103908;1269;96782;-72
2023/03/29 11:37:49;;;;;;;4.50;3.30;;;;;;;12.50;37.23;97588.16;104050;1269;96460;-72
2023/03/29 11:40:34;;;;;;;4.10;3.10;;;;;;;12.47;36.99;97583.09;103941;1274;101373;-72
2023/03/29 11:43:14;;;;;;;5.50;3.30;;;;;;;12.47;37.14;97582.35;103889;1278;101973;-72
2023/03/29 11:45:50;;;;;;;8.70;3.40;;;;;;;12.46;36.97;97579.23;103891;1269;100508;-72
2023/03/29 11:48:33;;;;;;;4.90;3.60;;;;;;;12.48;36.80;97571.14;104086;1269;96899;-72
2023/03/29 11:51:13;;;;;;;4.70;3.40;;;;;;;12.65;36.65;97572.02;103825;1271;96711;-73